createdAt,value
2022-12-18T00:02:50.574Z,75.50
2022-12-18T00:05:53.786Z,75.38
2022-12-18T00:08:57.955Z,75.35
2022-12-18T00:15:18.156Z,75.43
2022-12-18T00:18:20.883Z,75.84
2022-12-18T00:21:23.470Z,75.53
2022-12-18T00:24:26.170Z,75.73
2022-12-18T00:27:28.576Z,75.84
2022-12-18T00:30:31.182Z,76.11
2022-12-18T00:33:34.355Z,76.21
2022-12-18T00:36:37.259Z,75.95
2022-12-18T00:39:39.495Z,76.36
2022-12-18T00:43:08.041Z,76.39
2022-12-18T00:46:10.340Z,75.62
2022-12-18T00:49:13.079Z,75.32
2022-12-18T00:52:15.381Z,75.76
2022-12-18T00:55:19.133Z,75.11
2022-12-18T00:58:22.825Z,75.42
2022-12-18T01:01:25.607Z,75.19
2022-12-18T01:04:27.947Z,75.24
2022-12-18T01:07:30.480Z,75.33
2022-12-18T01:10:32.849Z,75.54
2022-12-18T01:13:35.865Z,75.47
2022-12-18T01:16:38.296Z,76.15
2022-12-18T01:19:41.310Z,75.87
2022-12-18T01:22:45.800Z,75.87
2022-12-18T01:25:48.330Z,75.52
2022-12-18T01:28:50.599Z,75.80
2022-12-18T01:31:56.436Z,76.05
2022-12-18T01:34:58.944Z,75.81
2022-12-18T01:38:02.942Z,76.16
2022-12-18T01:41:05.285Z,76.27
2022-12-18T01:44:46.411Z,76.44
2022-12-18T01:47:52.174Z,76.75
2022-12-18T01:50:55.262Z,76.60
2022-12-18T01:53:58.274Z,76.65
2022-12-18T01:57:02.000Z,76.61
2022-12-18T02:00:09.637Z,76.89
2022-12-18T02:03:15.567Z,76.98
2022-12-18T02:06:42.129Z,76.95
2022-12-18T02:10:16.032Z,76.83
2022-12-18T02:13:39.500Z,77.14
2022-12-18T02:17:06.110Z,77.50
2022-12-18T02:20:20.898Z,77.75
2022-12-18T02:23:29.314Z,77.39
2022-12-18T02:26:40.142Z,77.62
2022-12-18T02:29:57.627Z,77.97
2022-12-18T02:33:05.004Z,77.89
2022-12-18T02:36:11.034Z,77.73
2022-12-18T02:39:16.390Z,77.40
2022-12-18T02:42:20.302Z,77.42
2022-12-18T02:45:23.883Z,77.35
2022-12-18T02:48:34.793Z,77.78
2022-12-18T02:52:02.331Z,77.88
2022-12-18T02:55:35.440Z,77.56
2022-12-18T02:58:41.176Z,77.59
2022-12-18T03:01:52.971Z,77.63
2022-12-18T03:05:10.236Z,77.61
2022-12-18T03:08:23.560Z,77.67
2022-12-18T03:11:47.634Z,78.10
2022-12-18T03:14:56.627Z,78.18
2022-12-18T03:18:09.947Z,78.36
2022-12-18T03:21:14.794Z,78.50
2022-12-18T03:24:19.910Z,78.50
2022-12-18T03:27:25.469Z,78.53
2022-12-18T03:30:33.716Z,78.52
2022-12-18T03:33:43.602Z,78.69
2022-12-18T03:36:46.349Z,78.86
2022-12-18T03:39:48.875Z,78.65
2022-12-18T03:43:00.954Z,78.70
2022-12-18T03:46:15.960Z,78.37
2022-12-18T03:49:27.471Z,78.67
2022-12-18T03:52:43.671Z,78.46
2022-12-18T03:55:48.515Z,78.48
2022-12-18T03:58:53.710Z,78.64
2022-12-18T04:02:00.326Z,78.77
2022-12-18T04:05:06.879Z,79.13
2022-12-18T04:08:10.182Z,79.40
2022-12-18T04:11:13.577Z,79.28
2022-12-18T04:14:18.287Z,79.39
2022-12-18T04:17:23.593Z,79.65
2022-12-18T04:20:25.966Z,79.52
2022-12-18T04:23:29.402Z,79.80
2022-12-18T04:26:32.106Z,79.79
2022-12-18T04:29:35.371Z,79.75
2022-12-18T04:32:37.886Z,79.68
2022-12-18T04:35:41.958Z,79.70
2022-12-18T04:38:44.381Z,79.99
2022-12-18T04:41:47.319Z,80.21
2022-12-18T04:44:49.892Z,79.77
2022-12-18T04:47:52.462Z,79.85
2022-12-18T04:50:54.721Z,79.66
2022-12-18T04:53:57.320Z,79.66
2022-12-18T04:56:59.688Z,80.31
2022-12-18T05:00:02.512Z,80.36
2022-12-18T05:03:04.866Z,80.54
2022-12-18T05:06:08.317Z,80.60
2022-12-18T05:09:10.525Z,80.59
2022-12-18T05:12:13.131Z,80.42
2022-12-18T05:15:15.447Z,80.43
2022-12-18T05:18:18.019Z,80.44
2022-12-18T05:21:20.286Z,80.12
2022-12-18T05:24:22.804Z,79.96
2022-12-18T05:27:25.111Z,79.86
2022-12-18T05:30:28.608Z,80.04
2022-12-18T05:33:33.656Z,79.97
2022-12-18T05:36:36.526Z,79.41
2022-12-18T05:39:38.733Z,79.08
2022-12-18T05:42:41.475Z,78.93
2022-12-18T05:45:43.898Z,78.83
2022-12-18T05:48:46.968Z,79.15
2022-12-18T05:51:49.255Z,79.13
2022-12-18T05:54:51.802Z,79.23
2022-12-18T05:57:54.050Z,79.13
2022-12-18T06:00:56.596Z,79.11
2022-12-18T06:03:59.331Z,79.05
2022-12-18T06:07:04.426Z,79.13
2022-12-18T06:10:07.683Z,78.89
2022-12-18T06:13:10.086Z,78.89
2022-12-18T06:16:12.733Z,79.17
2022-12-18T06:19:16.769Z,79.23
2022-12-18T06:22:19.367Z,79.27
2022-12-18T06:25:21.627Z,79.42
2022-12-18T06:28:24.300Z,79.66
2022-12-18T06:31:27.228Z,80.09
2022-12-18T06:34:33.480Z,80.11
2022-12-18T06:37:35.729Z,80.11
2022-12-18T06:40:40.033Z,80.39
2022-12-18T06:43:43.044Z,80.62
2022-12-18T06:46:45.845Z,80.68
2022-12-18T06:49:48.139Z,80.63
2022-12-18T06:52:50.665Z,80.46
2022-12-18T06:55:53.059Z,80.34
2022-12-18T06:58:56.018Z,80.15
2022-12-18T07:01:58.405Z,79.96
2022-12-18T07:05:07.497Z,79.94
2022-12-18T07:08:12.687Z,80.24
2022-12-18T07:11:16.253Z,80.02
2022-12-18T07:14:18.580Z,79.90
2022-12-18T07:17:21.110Z,79.62
2022-12-18T07:20:23.401Z,79.25
2022-12-18T07:23:26.031Z,78.84
2022-12-18T07:26:28.293Z,79.01
2022-12-18T07:29:30.960Z,79.02
2022-12-18T07:32:33.312Z,78.98
2022-12-18T07:35:35.973Z,78.78
2022-12-18T07:38:38.551Z,78.76
2022-12-18T07:41:47.387Z,78.25
2022-12-18T07:44:51.586Z,78.10
2022-12-18T07:47:54.127Z,78.22
2022-12-18T07:51:00.901Z,77.99
2022-12-18T07:54:03.596Z,78.04
2022-12-18T07:57:16.441Z,77.93
2022-12-18T08:00:28.354Z,77.90
2022-12-18T08:03:31.263Z,77.60
2022-12-18T08:06:33.490Z,77.87
2022-12-18T08:09:36.109Z,78.16
2022-12-18T08:12:38.467Z,78.00
2022-12-18T08:15:40.974Z,77.78
2022-12-18T08:18:43.244Z,77.37
2022-12-18T08:21:45.766Z,76.99
2022-12-18T08:24:48.057Z,76.48
2022-12-18T08:27:50.690Z,75.50
2022-12-18T08:30:53.671Z,75.27
2022-12-18T08:33:56.683Z,74.94
2022-12-18T08:36:59.227Z,74.62
2022-12-18T08:40:02.006Z,74.32
2022-12-18T08:43:23.159Z,73.89
2022-12-18T08:46:27.627Z,73.74
2022-12-18T08:49:30.185Z,73.58
2022-12-18T08:52:33.771Z,73.13
2022-12-18T08:55:36.378Z,72.86
2022-12-18T08:58:38.950Z,72.67
2022-12-18T09:01:41.291Z,72.38
2022-12-18T09:04:45.603Z,72.20
2022-12-18T09:07:49.027Z,72.26
2022-12-18T09:10:51.715Z,71.61
2022-12-18T09:13:54.977Z,71.29
2022-12-18T09:16:57.575Z,71.18
2022-12-18T09:19:59.888Z,71.12
2022-12-18T09:23:02.655Z,70.67
2022-12-18T09:26:05.406Z,70.44
2022-12-18T09:29:10.974Z,70.34
2022-12-18T09:32:16.358Z,70.44
2022-12-18T09:35:23.174Z,70.36
2022-12-18T09:38:25.433Z,70.10
2022-12-18T09:41:45.517Z,69.27
2022-12-18T09:44:53.247Z,69.43
2022-12-18T09:47:56.637Z,69.46
2022-12-18T09:51:10.353Z,69.25
2022-12-18T09:54:36.788Z,69.29
2022-12-18T09:57:49.124Z,68.66
2022-12-18T10:00:54.287Z,68.08
2022-12-18T10:03:57.338Z,67.61
2022-12-18T10:07:21.058Z,67.27
2022-12-18T10:10:43.930Z,67.10
2022-12-18T10:13:54.916Z,66.95
2022-12-18T10:17:20.652Z,66.64
2022-12-18T10:20:35.294Z,66.37
2022-12-18T10:23:58.597Z,66.66
2022-12-18T10:27:14.922Z,66.53
2022-12-18T10:30:20.192Z,65.94
2022-12-18T10:33:25.043Z,66.06
2022-12-18T10:36:27.860Z,65.21
2022-12-18T10:39:30.174Z,64.61
2022-12-18T10:42:32.822Z,64.19
2022-12-18T10:45:36.092Z,64.47
2022-12-18T10:48:47.846Z,64.75
2022-12-18T10:51:51.030Z,64.44
2022-12-18T10:55:02.542Z,64.30
2022-12-18T10:58:28.022Z,64.47
2022-12-18T11:01:53.806Z,64.00
2022-12-18T11:04:56.156Z,64.11
2022-12-18T11:08:00.585Z,64.00
2022-12-18T11:11:03.240Z,63.33
2022-12-18T11:14:13.911Z,63.33
2022-12-18T11:17:37.467Z,63.35
2022-12-18T11:20:40.058Z,63.76
2022-12-18T11:24:00.551Z,62.99
2022-12-18T11:27:06.928Z,63.42
2022-12-18T11:30:26.729Z,63.63
2022-12-18T11:33:29.570Z,63.61
2022-12-18T11:36:40.678Z,63.60
2022-12-18T11:39:53.941Z,63.62
2022-12-18T11:43:05.461Z,63.69
2022-12-18T11:46:37.022Z,63.43
2022-12-18T11:49:42.307Z,63.51
2022-12-18T11:52:45.494Z,63.42
2022-12-18T11:55:54.182Z,64.25
2022-12-18T11:59:11.033Z,63.65
2022-12-18T12:02:22.649Z,63.52
2022-12-18T12:05:55.958Z,63.41
2022-12-18T12:09:07.543Z,63.18
2022-12-18T12:12:28.531Z,62.84
2022-12-18T12:16:18.283Z,62.41
2022-12-18T12:19:26.489Z,62.46
2022-12-18T12:22:45.596Z,62.09
2022-12-18T12:25:57.013Z,62.07
2022-12-18T12:29:27.920Z,61.80
2022-12-18T12:32:55.112Z,62.10
2022-12-18T12:36:12.375Z,61.81
2022-12-18T12:39:22.348Z,61.68
2022-12-18T12:43:07.390Z,61.86
2022-12-18T12:46:12.639Z,61.75
2022-12-18T12:49:28.619Z,61.75
2022-12-18T12:52:31.584Z,61.54
2022-12-18T12:55:35.321Z,61.37
2022-12-18T12:58:51.175Z,61.71
2022-12-18T13:01:56.466Z,60.60
2022-12-18T13:05:21.681Z,60.27
2022-12-18T13:08:27.456Z,60.22
2022-12-18T13:11:59.523Z,60.23
2022-12-18T13:15:33.533Z,59.52
2022-12-18T13:18:40.011Z,59.38
2022-12-18T13:21:52.972Z,59.14
2022-12-18T13:24:55.643Z,58.47
2022-12-18T13:28:13.676Z,59.03
2022-12-18T13:31:41.858Z,59.21
2022-12-18T13:34:44.542Z,58.88
2022-12-18T13:37:54.902Z,58.71
2022-12-18T13:41:02.529Z,58.74
2022-12-18T13:44:30.990Z,57.87
2022-12-18T13:47:36.168Z,57.58
2022-12-18T13:50:40.151Z,58.38
2022-12-18T13:53:56.269Z,58.60
2022-12-18T13:56:59.100Z,58.70
2022-12-18T14:00:19.833Z,58.41
2022-12-18T14:03:28.787Z,58.48
2022-12-18T14:06:32.364Z,59.02
2022-12-18T14:09:43.339Z,60.15
2022-12-18T14:13:03.203Z,60.64
2022-12-18T14:16:09.077Z,60.70
2022-12-18T14:19:18.034Z,61.26
2022-12-18T14:22:28.896Z,61.53
2022-12-18T14:25:31.889Z,61.78
2022-12-18T14:28:45.225Z,61.77
2022-12-18T14:31:47.811Z,62.89
2022-12-18T14:34:55.414Z,63.62
2022-12-18T14:38:25.810Z,63.87
2022-12-18T14:41:29.749Z,63.99
2022-12-18T14:44:44.140Z,63.95
2022-12-18T14:47:47.112Z,63.68
2022-12-18T14:51:16.707Z,63.70
2022-12-18T14:54:21.333Z,63.63
2022-12-18T14:57:27.857Z,63.41
2022-12-18T15:00:31.450Z,63.45
2022-12-18T15:03:33.837Z,63.66
2022-12-18T15:06:38.659Z,63.90
2022-12-18T15:09:43.834Z,64.22
2022-12-18T15:12:49.875Z,64.32
2022-12-18T15:15:54.179Z,64.69
2022-12-18T15:18:56.800Z,64.89
2022-12-18T15:22:04.419Z,65.19
2022-12-18T15:25:37.615Z,65.76
2022-12-18T15:28:45.854Z,65.49
2022-12-18T15:32:06.619Z,65.74
2022-12-18T15:35:11.995Z,66.11
2022-12-18T15:38:14.588Z,66.10
2022-12-18T15:41:24.357Z,66.14
2022-12-18T15:44:27.742Z,66.31
2022-12-18T15:47:30.292Z,66.59
2022-12-18T15:50:33.211Z,66.25
2022-12-18T15:53:36.176Z,65.90
2022-12-18T15:56:57.703Z,66.11
2022-12-18T16:00:01.276Z,66.34
2022-12-18T16:03:05.586Z,66.59
2022-12-18T16:06:10.362Z,66.76
2022-12-18T16:09:13.240Z,66.82
2022-12-18T16:12:22.476Z,66.72
2022-12-18T16:15:25.199Z,66.71
2022-12-18T16:18:27.802Z,67.10
2022-12-18T16:21:33.923Z,67.43
2022-12-18T16:24:37.344Z,67.33
2022-12-18T16:27:39.854Z,67.22
2022-12-18T16:30:43.406Z,67.36
2022-12-18T16:33:45.903Z,67.00
2022-12-18T16:36:49.937Z,67.62
2022-12-18T16:39:52.354Z,67.38
2022-12-18T16:42:54.942Z,67.77
2022-12-18T16:45:59.893Z,67.85
2022-12-18T16:49:02.521Z,68.23
2022-12-18T16:52:06.175Z,68.71
2022-12-18T16:55:09.241Z,70.41
2022-12-18T16:58:11.505Z,71.31
2022-12-18T17:01:14.179Z,71.42
2022-12-18T17:04:17.217Z,71.73
2022-12-18T17:07:19.731Z,71.33
2022-12-18T17:10:22.007Z,71.88
2022-12-18T17:13:27.583Z,72.74
2022-12-18T17:16:29.935Z,73.58
2022-12-18T17:19:33.875Z,74.58
2022-12-18T17:22:36.135Z,75.15
2022-12-18T17:25:41.695Z,75.20
2022-12-18T17:28:44.142Z,75.84
2022-12-18T17:31:47.886Z,76.18
2022-12-18T17:34:50.386Z,75.71
2022-12-18T17:37:52.920Z,75.62
2022-12-18T17:41:01.260Z,75.83
2022-12-18T17:44:06.502Z,75.64
2022-12-18T17:47:12.296Z,75.24
2022-12-18T17:50:16.816Z,75.17
2022-12-18T17:53:21.095Z,74.90
2022-12-18T17:56:26.147Z,74.99
2022-12-18T17:59:39.171Z,74.84
2022-12-18T18:02:42.586Z,74.37
2022-12-18T18:05:46.213Z,74.22
2022-12-18T18:08:49.741Z,74.45
2022-12-18T18:12:11.410Z,75.06
2022-12-18T18:15:14.131Z,75.45
2022-12-18T18:18:16.992Z,76.20
2022-12-18T18:21:20.657Z,76.55
2022-12-18T18:24:24.304Z,76.94
2022-12-18T18:27:26.943Z,77.44
2022-12-18T18:30:30.258Z,77.41
2022-12-18T18:33:33.886Z,77.67
2022-12-18T18:36:36.694Z,77.48
2022-12-18T18:39:39.289Z,77.51
2022-12-18T18:42:42.020Z,77.93
2022-12-18T18:45:46.084Z,78.01
2022-12-18T18:48:50.812Z,77.50
2022-12-18T18:51:54.479Z,76.95
2022-12-18T18:55:12.971Z,77.47
2022-12-18T18:58:16.141Z,77.95
2022-12-18T19:01:21.520Z,77.42
2022-12-18T19:04:23.766Z,77.96
2022-12-18T19:07:30.402Z,77.70
2022-12-18T19:10:33.318Z,77.85
2022-12-18T19:13:35.886Z,78.05
2022-12-18T19:16:38.678Z,78.15
2022-12-18T19:19:41.565Z,78.08
2022-12-18T19:22:47.920Z,77.86
2022-12-18T19:26:27.337Z,77.29
2022-12-18T19:29:27.618Z,77.33
2022-12-18T19:32:31.507Z,78.13
2022-12-18T19:35:33.926Z,78.30
2022-12-18T19:38:36.453Z,78.37
2022-12-18T19:41:39.541Z,78.74
2022-12-18T19:44:42.331Z,79.21
2022-12-18T19:47:44.576Z,79.12
2022-12-18T19:50:47.119Z,79.31
2022-12-18T19:53:54.927Z,79.33
2022-12-18T19:57:00.691Z,78.93
2022-12-18T20:00:03.858Z,78.67
2022-12-18T20:03:23.499Z,78.26
2022-12-18T20:06:34.713Z,77.97
2022-12-18T20:09:36.964Z,77.95
2022-12-18T20:12:39.836Z,77.57
2022-12-18T20:15:45.388Z,77.48
2022-12-18T20:18:49.245Z,77.42
2022-12-18T20:21:51.558Z,77.12
2022-12-18T20:24:54.117Z,77.17
2022-12-18T20:27:56.876Z,77.21
2022-12-18T20:31:04.789Z,77.72
2022-12-18T20:34:07.308Z,77.75
2022-12-18T20:37:10.970Z,77.84
2022-12-18T20:40:14.430Z,77.61
2022-12-18T20:43:17.496Z,78.01
2022-12-18T20:46:20.434Z,77.99
2022-12-18T20:49:24.882Z,77.96
2022-12-18T20:52:27.254Z,78.37
2022-12-18T20:55:30.180Z,78.56
2022-12-18T20:58:32.434Z,78.91
2022-12-18T21:01:35.174Z,78.71
2022-12-18T21:04:38.926Z,78.65
2022-12-18T21:07:41.481Z,78.60
2022-12-18T21:10:43.699Z,79.26
2022-12-18T21:13:46.927Z,79.35
2022-12-18T21:16:50.113Z,79.76
2022-12-18T21:19:53.079Z,79.75
2022-12-18T21:22:57.744Z,79.87
2022-12-18T21:26:16.573Z,80.31
2022-12-18T21:29:26.269Z,80.50
2022-12-18T21:32:32.023Z,80.37
2022-12-18T21:35:36.598Z,80.35
2022-12-18T21:38:39.181Z,80.28
2022-12-18T21:42:00.752Z,80.62
2022-12-18T21:45:03.859Z,80.39
2022-12-18T21:48:06.159Z,80.24
2022-12-18T21:51:08.989Z,80.00
2022-12-18T21:54:11.778Z,80.28
2022-12-18T21:57:14.718Z,80.12
2022-12-18T22:00:19.344Z,80.40
2022-12-18T22:03:22.539Z,80.01
2022-12-18T22:06:24.895Z,79.79
2022-12-18T22:09:27.927Z,80.00
2022-12-18T22:12:43.704Z,80.12
2022-12-18T22:15:47.149Z,80.20
2022-12-18T22:18:49.778Z,80.53
2022-12-18T22:21:52.865Z,80.94
2022-12-18T22:24:55.159Z,80.99
2022-12-18T22:28:16.217Z,81.24
2022-12-18T22:31:18.549Z,81.54
2022-12-18T22:34:23.139Z,81.97
2022-12-18T22:37:25.672Z,82.31
2022-12-18T22:40:28.440Z,82.61
2022-12-18T22:43:30.758Z,83.10
2022-12-18T22:46:37.874Z,83.21
2022-12-18T22:49:40.240Z,83.55
2022-12-18T22:52:42.784Z,83.71
2022-12-18T22:55:45.030Z,83.66
2022-12-18T22:58:49.443Z,83.67
2022-12-18T23:01:54.898Z,83.31
2022-12-18T23:05:01.558Z,83.59
2022-12-18T23:08:03.914Z,83.80
2022-12-18T23:11:06.543Z,83.85
2022-12-18T23:14:08.844Z,83.78
2022-12-18T23:17:11.917Z,83.76
2022-12-18T23:20:14.296Z,83.53
2022-12-18T23:23:17.209Z,83.87
2022-12-18T23:26:22.297Z,84.33
2022-12-18T23:29:24.805Z,84.29
2022-12-18T23:32:27.180Z,84.83
2022-12-18T23:35:30.463Z,85.01
2022-12-18T23:38:33.879Z,85.18
2022-12-18T23:41:36.452Z,85.49
2022-12-18T23:44:38.711Z,85.67
2022-12-18T23:47:41.334Z,86.00
2022-12-18T23:50:43.649Z,86.46
2022-12-18T23:53:46.393Z,87.14
2022-12-18T23:56:48.665Z,87.99
2022-12-18T23:59:53.443Z,88.56
